N113PF KTEB-KBDL
Flight info
| Callsign | N113PF |
|---|---|
| Flight time | 0h 26m |
| Altitude | 17000 |
| Route | BREZY V39 CMK V419 JUDDS |
| Aircraft | PC24/L-VGDW/C |
Departure
| Time | 2026-05-08 20:20 |
|---|---|
| Airport | Teterboro Airport (KTEB) |
Arrival
| Time | 2026-05-08 20:47 |
|---|---|
| Airport | Bradley International Airport (KBDL) |
| Time | Latitude | Longitude | Altitude | Speed | Heading |
|---|---|---|---|---|---|
| 2026-05-08 19:57 | 40.85523 | -74.05483 | 14 ft | 0 kts | 316° |
| 2026-05-08 20:18 | 40.85533 | -74.05474 | 15 ft | 4 kts | 47° |
| 2026-05-08 20:18 | 40.85566 | -74.05427 | 14 ft | 9 kts | 47° |
| 2026-05-08 20:18 | 40.85609 | -74.05369 | 13 ft | 9 kts | 41° |
| 2026-05-08 20:18 | 40.85655 | -74.05340 | 13 ft | 4 kts | 13° |
| 2026-05-08 20:19 | 40.85670 | -74.05335 | 14 ft | 5 kts | 12° |
| 2026-05-08 20:19 | 40.85713 | -74.05353 | 14 ft | 8 kts | 317° |
| 2026-05-08 20:19 | 40.85746 | -74.05434 | 14 ft | 12 kts | 250° |
| 2026-05-08 20:19 | 40.85635 | -74.05610 | 16 ft | 57 kts | 227° |
| 2026-05-08 20:20 | 40.85146 | -74.06334 | 57 ft | 147 kts | 228° |
| 2026-05-08 20:20 | 40.84323 | -74.07521 | 401 ft | 196 kts | 229° |
| 2026-05-08 20:20 | 40.83358 | -74.08837 | 1111 ft | 202 kts | 229° |
| 2026-05-08 20:20 | 40.82411 | -74.10309 | 1270 ft | 225 kts | 247° |
| 2026-05-08 20:21 | 40.82049 | -74.12439 | 1212 ft | 250 kts | 263° |
| 2026-05-08 20:21 | 40.81669 | -74.14742 | 1168 ft | 263 kts | 255° |
| 2026-05-08 20:21 | 40.81455 | -74.17106 | 1583 ft | 253 kts | 280° |
| 2026-05-08 20:21 | 40.82370 | -74.18929 | 2954 ft | 239 kts | 323° |
| 2026-05-08 20:22 | 40.83927 | -74.19326 | 4867 ft | 228 kts | 5° |
| 2026-05-08 20:22 | 40.85386 | -74.18358 | 5993 ft | 243 kts | 39° |
| 2026-05-08 20:22 | 40.86127 | -74.16408 | 6712 ft | 245 kts | 82° |
| 2026-05-08 20:22 | 40.86184 | -74.14160 | 7477 ft | 247 kts | 90° |
| 2026-05-08 20:23 | 40.86348 | -74.11880 | 8228 ft | 252 kts | 73° |
| 2026-05-08 20:23 | 40.86993 | -74.09734 | 9012 ft | 252 kts | 60° |
| 2026-05-08 20:23 | 40.87782 | -74.07588 | 9725 ft | 273 kts | 62° |
| 2026-05-08 20:23 | 40.88554 | -74.05151 | 10005 ft | 309 kts | 66° |
| 2026-05-08 20:24 | 40.89341 | -74.02354 | 10016 ft | 338 kts | 68° |
| 2026-05-08 20:24 | 40.90168 | -73.99395 | 10014 ft | 349 kts | 67° |
| 2026-05-08 20:24 | 40.91056 | -73.96410 | 10009 ft | 351 kts | 65° |
| 2026-05-08 20:24 | 40.91996 | -73.93428 | 10007 ft | 352 kts | 65° |
| 2026-05-08 20:25 | 40.92936 | -73.90450 | 10002 ft | 351 kts | 65° |
| 2026-05-08 20:25 | 40.93843 | -73.87441 | 10008 ft | 353 kts | 66° |
| 2026-05-08 20:25 | 40.94719 | -73.84410 | 10000 ft | 352 kts | 67° |
| 2026-05-08 20:25 | 40.95601 | -73.81387 | 10006 ft | 353 kts | 66° |
| 2026-05-08 20:26 | 40.96514 | -73.78374 | 10007 ft | 353 kts | 65° |
| 2026-05-08 20:26 | 40.97444 | -73.75368 | 10006 ft | 353 kts | 65° |
| 2026-05-08 20:26 | 40.98363 | -73.72357 | 10008 ft | 353 kts | 66° |
| 2026-05-08 20:26 | 40.99255 | -73.69337 | 10008 ft | 353 kts | 66° |
| 2026-05-08 20:27 | 41.00138 | -73.66306 | 10008 ft | 353 kts | 66° |
| 2026-05-08 20:27 | 41.01031 | -73.63283 | 10007 ft | 353 kts | 66° |
| 2026-05-08 20:27 | 41.01941 | -73.60274 | 10005 ft | 352 kts | 65° |
| 2026-05-08 20:27 | 41.02855 | -73.57271 | 10004 ft | 353 kts | 65° |
| 2026-05-08 20:28 | 41.03761 | -73.54236 | 10008 ft | 354 kts | 66° |
| 2026-05-08 20:28 | 41.04649 | -73.51198 | 10005 ft | 354 kts | 66° |
| 2026-05-08 20:28 | 41.05541 | -73.48143 | 10002 ft | 356 kts | 66° |
| 2026-05-08 20:28 | 41.06444 | -73.45105 | 10005 ft | 354 kts | 65° |
| 2026-05-08 20:29 | 41.07360 | -73.42066 | 9997 ft | 355 kts | 65° |
| 2026-05-08 20:29 | 41.08265 | -73.39043 | 9990 ft | 351 kts | 66° |
| 2026-05-08 20:29 | 41.09153 | -73.36017 | 9996 ft | 353 kts | 66° |
| 2026-05-08 20:29 | 41.10036 | -73.32974 | 9999 ft | 354 kts | 66° |
| 2026-05-08 20:30 | 41.10929 | -73.29922 | 9998 ft | 355 kts | 66° |
| 2026-05-08 20:30 | 41.11830 | -73.26882 | 10002 ft | 355 kts | 65° |
| 2026-05-08 20:30 | 41.12726 | -73.23878 | 10002 ft | 355 kts | 65° |
| 2026-05-08 20:30 | 41.13626 | -73.20833 | 10005 ft | 355 kts | 66° |
| 2026-05-08 20:31 | 41.14522 | -73.17786 | 10005 ft | 354 kts | 64° |
| 2026-05-08 20:31 | 41.15718 | -73.14979 | 9990 ft | 347 kts | 48° |
| 2026-05-08 20:31 | 41.17329 | -73.12632 | 9994 ft | 342 kts | 38° |
| 2026-05-08 20:31 | 41.19248 | -73.10788 | 9993 ft | 333 kts | 22° |
| 2026-05-08 20:32 | 41.21309 | -73.09512 | 9995 ft | 330 kts | 15° |
| 2026-05-08 20:32 | 41.23445 | -73.08386 | 10004 ft | 330 kts | 15° |
| 2026-05-08 20:32 | 41.25575 | -73.07228 | 10004 ft | 331 kts | 16° |
| 2026-05-08 20:32 | 41.27664 | -73.05915 | 9987 ft | 337 kts | 27° |
| 2026-05-08 20:33 | 41.29192 | -73.03497 | 9981 ft | 350 kts | 60° |
| 2026-05-08 20:33 | 41.29988 | -73.00585 | 9876 ft | 322 kts | 71° |
| 2026-05-08 20:33 | 41.30583 | -72.97799 | 9782 ft | 308 kts | 70° |
| 2026-05-08 20:33 | 41.31362 | -72.95022 | 10005 ft | 335 kts | 62° |
| 2026-05-08 20:34 | 41.32611 | -72.92393 | 10005 ft | 340 kts | 43° |
| 2026-05-08 20:34 | 41.34369 | -72.90319 | 10014 ft | 339 kts | 31° |
| 2026-05-08 20:34 | 41.38089 | -72.86424 | 10004 ft | 343 kts | 37° |
| 2026-05-08 20:35 | 41.39800 | -72.84191 | 10007 ft | 345 kts | 40° |
| 2026-05-08 20:35 | 41.41491 | -72.81924 | 10001 ft | 344 kts | 39° |
| 2026-05-08 20:35 | 41.43245 | -72.79771 | 10002 ft | 343 kts | 35° |
| 2026-05-08 20:35 | 41.45070 | -72.77723 | 10007 ft | 343 kts | 33° |
| 2026-05-08 20:36 | 41.46919 | -72.75727 | 10008 ft | 342 kts | 33° |
| 2026-05-08 20:36 | 41.48705 | -72.73624 | 10003 ft | 343 kts | 37° |
| 2026-05-08 20:36 | 41.50421 | -72.71402 | 10005 ft | 344 kts | 39° |
| 2026-05-08 20:36 | 41.52119 | -72.69157 | 10004 ft | 341 kts | 38° |
| 2026-05-08 20:37 | 41.53862 | -72.67006 | 10003 ft | 338 kts | 36° |
| 2026-05-08 20:37 | 41.55626 | -72.64975 | 10002 ft | 335 kts | 34° |
| 2026-05-08 20:37 | 41.57307 | -72.63043 | 9980 ft | 303 kts | 35° |
| 2026-05-08 20:37 | 41.58810 | -72.61211 | 9988 ft | 291 kts | 36° |
| 2026-05-08 20:38 | 41.60274 | -72.59379 | 9195 ft | 294 kts | 36° |
| 2026-05-08 20:38 | 41.61791 | -72.57540 | 8556 ft | 290 kts | 36° |
| 2026-05-08 20:38 | 41.63328 | -72.55780 | 8034 ft | 289 kts | 31° |
| 2026-05-08 20:38 | 41.65081 | -72.54590 | 7521 ft | 277 kts | 14° |
| 2026-05-08 20:39 | 41.66885 | -72.53917 | 6987 ft | 263 kts | 6° |
| 2026-05-08 20:39 | 41.68659 | -72.53461 | 6437 ft | 257 kts | 5° |
| 2026-05-08 20:39 | 41.70400 | -72.53024 | 5862 ft | 253 kts | 6° |
| 2026-05-08 20:39 | 41.72087 | -72.52547 | 5299 ft | 249 kts | 7° |
| 2026-05-08 20:40 | 41.73769 | -72.52039 | 4772 ft | 246 kts | 7° |
| 2026-05-08 20:40 | 41.75395 | -72.51552 | 4467 ft | 233 kts | 7° |
| 2026-05-08 20:40 | 41.76946 | -72.51115 | 4170 ft | 223 kts | 6° |
| 2026-05-08 20:40 | 41.78425 | -72.50816 | 3875 ft | 201 kts | 355° |
| 2026-05-08 20:41 | 41.79675 | -72.51035 | 3650 ft | 167 kts | 341° |
| 2026-05-08 20:41 | 41.80678 | -72.51579 | 3445 ft | 148 kts | 326° |
| 2026-05-08 20:41 | 41.81566 | -72.52194 | 3246 ft | 142 kts | 324° |
| 2026-05-08 20:41 | 41.82315 | -72.53049 | 3079 ft | 143 kts | 311° |
| 2026-05-08 20:42 | 41.83015 | -72.53975 | 2888 ft | 139 kts | 310° |
| 2026-05-08 20:42 | 41.83694 | -72.54899 | 2710 ft | 140 kts | 310° |
| 2026-05-08 20:42 | 41.84378 | -72.55834 | 2525 ft | 141 kts | 310° |
| 2026-05-08 20:42 | 41.85063 | -72.56780 | 2320 ft | 141 kts | 310° |
| 2026-05-08 20:43 | 41.85721 | -72.57679 | 2141 ft | 130 kts | 311° |
| 2026-05-08 20:43 | 41.86330 | -72.58509 | 1952 ft | 120 kts | 310° |
| 2026-05-08 20:43 | 41.86910 | -72.59303 | 1819 ft | 117 kts | 310° |
| 2026-05-08 20:43 | 41.87481 | -72.60076 | 1776 ft | 120 kts | 309° |
| 2026-05-08 20:44 | 41.88079 | -72.60904 | 1629 ft | 125 kts | 310° |
| 2026-05-08 20:44 | 41.88673 | -72.61715 | 1427 ft | 117 kts | 309° |
| 2026-05-08 20:44 | 41.89210 | -72.62446 | 1281 ft | 106 kts | 310° |
| 2026-05-08 20:44 | 41.89710 | -72.63137 | 1130 ft | 105 kts | 309° |
| 2026-05-08 20:45 | 41.90218 | -72.63831 | 986 ft | 104 kts | 311° |
| 2026-05-08 20:45 | 41.90565 | -72.64309 | 888 ft | 108 kts | 312° |
| 2026-05-08 20:45 | 41.91256 | -72.65245 | 687 ft | 103 kts | 314° |
| 2026-05-08 20:45 | 41.91773 | -72.65960 | 576 ft | 111 kts | 314° |
| 2026-05-08 20:46 | 41.92295 | -72.66673 | 357 ft | 104 kts | 315° |
| 2026-05-08 20:46 | 41.92794 | -72.67339 | 224 ft | 107 kts | 314° |
| 2026-05-08 20:46 | 41.93277 | -72.68008 | 175 ft | 89 kts | 314° |
| 2026-05-08 20:46 | 41.93653 | -72.68523 | 171 ft | 64 kts | 314° |
| 2026-05-08 20:47 | 41.93895 | -72.68854 | 174 ft | 38 kts | 314° |
| 2026-05-08 20:47 | 41.93924 | -72.69008 | 174 ft | 14 kts | 223° |
| 2026-05-08 20:47 | 41.93851 | -72.69102 | 177 ft | 16 kts | 225° |
| 2026-05-08 20:47 | 41.93764 | -72.69217 | 177 ft | 18 kts | 224° |
| 2026-05-08 20:48 | 41.93735 | -72.69343 | 177 ft | 15 kts | 311° |